Time;durP1;ratioP1;P1;durP2;ratioP2;P2;SDS_P1;SDS_P2;PMS_P1;PMS_P2;Temp;Humidity;BMP_temperature;BMP_pressure;BME280_temperature;BME280_humidity;BME280_pressure;Samples;Min_cycle;Max_cycle;Signal;HPM_P1;HPM_P2
2022/05/27 00:00:22;;;;;;;3.58;1.08;;;14.40;99.90;;;;;;4996360;28;20197;-55
2022/05/27 00:02:50;;;;;;;3.72;1.30;;;14.40;99.90;;;;;;5006752;28;20176;-55
2022/05/27 00:05:17;;;;;;;4.40;1.10;;;14.40;99.90;;;;;;5000643;28;20172;-55
2022/05/27 00:07:44;;;;;;;4.40;1.13;;;14.40;99.90;;;;;;4994713;28;20174;-56
2022/05/27 00:10:12;;;;;;;6.03;1.27;;;14.40;99.90;;;;;;5004880;28;20203;-54
2022/05/27 00:12:38;;;;;;;4.47;1.35;;;14.40;99.90;;;;;;4997172;28;20198;-54
2022/05/27 00:15:05;;;;;;;3.97;1.15;;;14.40;99.90;;;;;;5004639;28;20260;-54
2022/05/27 00:17:30;;;;;;;3.58;1.27;;;14.40;99.90;;;;;;5011896;28;20166;-55
2022/05/27 00:19:56;;;;;;;7.10;1.42;;;14.40;99.90;;;;;;4997931;28;20518;-55
2022/05/27 00:22:22;;;;;;;3.72;1.13;;;14.40;99.90;;;;;;5007439;28;20693;-54
2022/05/27 00:24:48;;;;;;;2.50;1.20;;;14.40;99.90;;;;;;5007412;28;20206;-55
2022/05/27 00:27:14;;;;;;;6.00;1.40;;;14.30;99.90;;;;;;5003493;28;20273;-55
2022/05/27 00:29:40;;;;;;;7.90;1.63;;;14.30;99.90;;;;;;5000413;28;20599;-55
2022/05/27 00:32:06;;;;;;;5.35;2.03;;;14.30;99.90;;;;;;4996767;28;20237;-55
2022/05/27 00:34:32;;;;;;;3.78;1.75;;;14.30;99.90;;;;;;5007755;28;20680;-55
2022/05/27 00:37:02;;;;;;;6.28;2.72;;;14.30;99.90;;;;;;4994071;28;20218;-55
2022/05/27 00:39:28;;;;;;;6.53;2.58;;;14.30;99.90;;;;;;4996981;28;20638;-54
2022/05/27 00:41:54;;;;;;;10.10;2.85;;;14.20;99.90;;;;;;5003132;28;20175;-55
2022/05/27 00:45:06;;;;;;;5.82;2.80;;;14.20;99.90;;;;;;5001578;28;20679;-55
2022/05/27 00:47:34;;;;;;;11.00;3.20;;;14.20;99.90;;;;;;4999409;28;20171;-54
2022/05/27 00:50:06;;;;;;;8.98;3.17;;;14.20;99.90;;;;;;5002806;28;20205;-54
2022/05/27 00:52:35;;;;;;;10.18;3.38;;;14.10;99.90;;;;;;4996736;28;20267;-54
2022/05/27 00:55:02;;;;;;;9.60;3.33;;;14.10;99.90;;;;;;5009677;28;20318;-55
2022/05/27 00:57:34;;;;;;;11.57;3.15;;;14.10;99.90;;;;;;4993694;28;20191;-55
2022/05/27 01:00:08;;;;;;;6.97;3.45;;;14.10;99.90;;;;;;4995841;28;20175;-55
2022/05/27 01:02:35;;;;;;;9.00;3.50;;;14.10;99.90;;;;;;5005479;28;20672;-55
2022/05/27 01:05:04;;;;;;;7.88;3.50;;;14.10;99.90;;;;;;5001488;28;20175;-55
2022/05/27 01:07:30;;;;;;;9.30;3.90;;;14.10;99.90;;;;;;5003517;28;20257;-55
2022/05/27 01:09:57;;;;;;;9.40;3.90;;;14.10;99.90;;;;;;5001833;28;20210;-57
2022/05/27 01:13:00;;;;;;;10.38;4.50;;;14.10;99.90;;;;;;5002058;28;20221;-55
2022/05/27 01:16:11;;;;;;;12.93;4.47;;;14.10;99.90;;;;;;5009928;28;20682;-56
2022/05/27 01:22:19;;;;;;;8.27;3.60;;;14.00;99.90;;;;;;4993441;28;20697;-56
2022/05/27 01:24:59;;;;;;;9.88;3.63;;;14.00;99.90;;;;;;5002353;28;20185;-62
2022/05/27 01:27:49;;;;;;;12.93;4.13;;;13.90;99.90;;;;;;4993560;28;20634;-57
2022/05/27 01:30:21;;;;;;;9.77;3.95;;;13.90;99.90;;;;;;5001826;28;20186;-57
2022/05/27 01:32:59;;;;;;;8.27;4.15;;;13.90;99.90;;;;;;4998923;28;20341;-57
2022/05/27 01:35:24;;;;;;;9.50;4.40;;;13.90;99.90;;;;;;5007249;28;20206;-56
2022/05/27 01:38:02;;;;;;;9.35;4.05;;;13.90;99.90;;;;;;5002426;28;20698;-56
2022/05/27 01:40:39;;;;;;;10.00;4.30;;;13.80;99.90;;;;;;5002230;28;20206;-56
2022/05/27 01:43:28;;;;;;;7.65;4.25;;;13.90;99.90;;;;;;5008210;28;20705;-57
2022/05/27 01:45:59;;;;;;;12.10;4.90;;;13.80;99.90;;;;;;4999775;28;20262;-57
2022/05/27 01:48:31;;;;;;;9.45;4.15;;;13.80;99.90;;;;;;5006342;28;20184;-57
2022/05/27 01:51:18;;;;;;;9.40;3.90;;;13.80;99.90;;;;;;5004435;28;20174;-56
2022/05/27 01:54:15;;;;;;;11.60;4.20;;;13.70;99.90;;;;;;4993123;28;20518;-56
2022/05/27 01:56:56;;;;;;;7.82;3.97;;;13.80;99.90;;;;;;4971989;28;20231;-57
2022/05/27 01:59:32;;;;;;;11.73;4.05;;;13.70;99.90;;;;;;4998111;28;20182;-56
2022/05/27 02:02:12;;;;;;;8.17;4.00;;;13.80;99.90;;;;;;5002813;28;20183;-56
2022/05/27 02:05:09;;;;;;;8.77;4.05;;;13.80;99.90;;;;;;4993710;28;20198;-57
2022/05/27 02:07:44;;;;;;;10.02;4.20;;;13.80;99.90;;;;;;4987951;28;20195;-56
2022/05/27 02:10:29;;;;;;;7.43;4.45;;;13.80;99.90;;;;;;5007162;28;20228;-56
2022/05/27 02:13:00;;;;;;;10.80;4.95;;;13.80;99.90;;;;;;4998298;28;20207;-57
2022/05/27 02:15:38;;;;;;;12.48;5.43;;;13.70;99.90;;;;;;5008106;28;20210;-57
2022/05/27 02:18:12;;;;;;;14.52;5.68;;;13.80;99.90;;;;;;4997489;28;20175;-54
2022/05/27 02:20:44;;;;;;;11.30;6.10;;;13.80;99.90;;;;;;5010325;28;20704;-55
2022/05/27 02:23:29;;;;;;;13.13;5.75;;;13.90;99.90;;;;;;4996106;28;20669;-56
2022/05/27 02:25:57;;;;;;;10.35;5.40;;;13.80;99.90;;;;;;4991971;28;20283;-56
2022/05/27 02:28:27;;;;;;;17.58;6.18;;;13.80;99.90;;;;;;4992142;28;20179;-55
2022/05/27 02:30:59;;;;;;;14.05;5.95;;;13.80;99.90;;;;;;4996364;28;20179;-55
2022/05/27 02:36:25;;;;;;;12.05;6.30;;;13.70;99.90;;;;;;4993067;28;20353;-55
2022/05/27 02:38:51;;;;;;;12.85;5.88;;;13.60;99.90;;;;;;5007876;28;20170;-55
2022/05/27 02:41:40;;;;;;;14.68;6.70;;;13.50;99.90;;;;;;4992864;28;20205;-55
2022/05/27 02:44:15;;;;;;;12.35;6.22;;;13.50;99.90;;;;;;5010604;28;20187;-54
2022/05/27 02:47:02;;;;;;;16.08;7.03;;;13.50;99.90;;;;;;5004636;28;20178;-55
2022/05/27 02:49:39;;;;;;;12.70;6.05;;;13.50;99.90;;;;;;5008236;28;20201;-56
2022/05/27 02:52:15;;;;;;;10.00;5.68;;;13.50;99.90;;;;;;5005415;28;20179;-55
2022/05/27 02:54:52;;;;;;;13.73;6.05;;;13.40;99.90;;;;;;5002237;28;20668;-54
2022/05/27 02:57:35;;;;;;;12.67;5.97;;;13.40;99.90;;;;;;5005453;28;20183;-55
2022/05/27 03:00:09;;;;;;;11.55;5.28;;;13.30;99.90;;;;;;4993721;28;20175;-55
2022/05/27 03:02:34;;;;;;;19.40;6.13;;;14.50;99.90;;;;;;4997382;28;20191;-55
2022/05/27 03:05:02;;;;;;;12.93;6.03;;;13.20;99.90;;;;;;5004783;28;20277;-55
2022/05/27 03:07:42;;;;;;;10.88;5.80;;;13.20;99.90;;;;;;4996930;28;20183;-55
2022/05/27 03:10:22;;;;;;;13.27;5.72;;;13.20;99.90;;;;;;5005815;28;20182;-55
2022/05/27 03:13:21;;;;;;;10.73;5.63;;;13.10;99.90;;;;;;5009321;28;20182;-55
2022/05/27 03:16:11;;;;;;;10.77;5.80;;;13.10;99.90;;;;;;4999965;28;20262;-55
2022/05/27 03:18:55;;;;;;;15.17;6.13;;;13.00;99.90;;;;;;5003192;28;20209;-55
2022/05/27 03:21:39;;;;;;;16.90;5.97;;;13.00;99.90;;;;;;4996585;28;20230;-56
2022/05/27 03:24:33;;;;;;;16.00;6.40;;;12.90;99.90;;;;;;4991569;28;20746;-55
2022/05/27 03:27:08;;;;;;;12.23;6.05;;;12.90;99.90;;;;;;5002975;28;20261;-56
2022/05/27 03:30:00;;;;;;;17.30;6.53;;;12.80;99.90;;;;;;4994368;28;20185;-57
2022/05/27 03:32:55;;;;;;;17.20;7.20;;;12.80;99.90;;;;;;4996228;28;20183;-55
2022/05/27 03:35:30;;;;;;;16.83;7.43;;;12.70;99.90;;;;;;5005958;28;20268;-55
2022/05/27 03:38:02;;;;;;;15.30;7.07;;;12.70;99.90;;;;;;4994418;28;20174;-55
2022/05/27 03:40:39;;;;;;;13.63;7.38;;;12.60;99.90;;;;;;5003193;28;20187;-55
2022/05/27 03:43:06;;;;;;;18.80;7.47;;;12.60;99.90;;;;;;5003823;28;20179;-55
2022/05/27 03:45:48;;;;;;;18.87;7.27;;;12.50;99.90;;;;;;4994169;28;20218;-55
2022/05/27 03:48:14;;;;;;;14.93;6.97;;;12.50;99.90;;;;;;4991104;28;20195;-56
2022/05/27 03:50:40;;;;;;;13.87;7.10;;;12.50;99.90;;;;;;4991494;28;20222;-55
2022/05/27 03:53:06;;;;;;;18.00;7.07;;;12.50;99.90;;;;;;4999818;28;20289;-54
2022/05/27 03:55:31;;;;;;;19.40;6.57;;;12.40;99.90;;;;;;4993909;28;20694;-55
2022/05/27 03:57:57;;;;;;;16.17;7.67;;;12.40;99.90;;;;;;4991127;28;20253;-55
2022/05/27 04:00:23;;;;;;;13.97;6.30;;;12.30;99.90;;;;;;5005556;28;20203;-55
2022/05/27 04:02:49;;;;;;;15.85;6.75;;;12.30;99.90;;;;;;5002130;28;20182;-55
2022/05/27 04:05:17;;;;;;;16.30;6.47;;;12.20;99.90;;;;;;4996448;28;20187;-56
2022/05/27 04:07:44;;;;;;;19.50;7.77;;;12.20;99.90;;;;;;4990850;28;20179;-56
2022/05/27 04:10:10;;;;;;;15.73;6.70;;;12.20;99.90;;;;;;5004017;28;20221;-55
2022/05/27 04:12:36;;;;;;;15.23;6.07;;;12.10;99.90;;;;;;5000980;28;20768;-54
2022/05/27 04:15:03;;;;;;;12.13;6.07;;;12.10;99.90;;;;;;5005462;28;20183;-55
2022/05/27 04:17:31;;;;;;;15.30;5.30;;;12.00;99.90;;;;;;4993029;28;20183;-55
2022/05/27 04:20:03;;;;;;;15.40;5.80;;;12.00;99.90;;;;;;5007820;28;20179;-55
2022/05/27 04:22:29;;;;;;;15.97;5.73;;;12.00;99.90;;;;;;4999217;28;20246;-55
2022/05/27 04:24:55;;;;;;;14.13;5.77;;;12.00;99.90;;;;;;4992297;28;20218;-56
2022/05/27 04:27:21;;;;;;;14.63;5.40;;;11.90;99.90;;;;;;5008673;28;20178;-55
2022/05/27 04:29:49;;;;;;;12.67;4.93;;;11.90;99.90;;;;;;5002010;28;20175;-60
2022/05/27 04:32:15;;;;;;;11.43;5.50;;;11.90;99.90;;;;;;4998963;28;20501;-55
2022/05/27 04:34:41;;;;;;;14.33;5.77;;;11.90;99.90;;;;;;5009557;28;20182;-56
2022/05/27 04:37:07;;;;;;;18.90;4.87;;;11.90;99.90;;;;;;4994311;28;20219;-55
2022/05/27 04:39:34;;;;;;;14.10;4.40;;;11.80;99.90;;;;;;4994433;28;20261;-55
2022/05/27 04:41:59;;;;;;;12.47;4.40;;;11.70;99.90;;;;;;4996201;28;20179;-55
2022/05/27 04:44:25;;;;;;;9.83;3.87;;;11.60;99.90;;;;;;5011327;28;20181;-55
2022/05/27 04:46:51;;;;;;;14.20;4.23;;;11.60;99.90;;;;;;4997897;28;20176;-55
2022/05/27 04:52:01;;;;;;;16.70;4.33;;;11.60;99.90;;;;;;5007902;28;20664;-55
2022/05/27 04:54:27;;;;;;;14.40;4.47;;;11.60;99.90;;;;;;4994044;28;20206;-55
2022/05/27 04:56:54;;;;;;;22.57;4.07;;;11.60;99.90;;;;;;5005537;28;20213;-55
2022/05/27 04:59:20;;;;;;;12.07;3.70;;;11.70;99.90;;;;;;4997950;28;20694;-55
2022/05/27 05:01:46;;;;;;;9.53;3.17;;;11.70;99.90;;;;;;4998528;28;20262;-56
2022/05/27 05:04:11;;;;;;;15.47;3.20;;;11.70;99.90;;;;;;5013327;28;20179;-55
2022/05/27 05:06:38;;;;;;;9.33;2.90;;;11.70;99.90;;;;;;4999389;28;20622;-55
2022/05/27 05:09:04;;;;;;;10.67;3.10;;;11.70;99.90;;;;;;5004634;28;20250;-55
2022/05/27 05:11:30;;;;;;;12.57;2.60;;;11.70;99.90;;;;;;5004412;28;20654;-56
2022/05/27 05:13:56;;;;;;;13.83;2.90;;;11.70;99.90;;;;;;5009817;28;20182;-56
2022/05/27 05:16:21;;;;;;;10.03;3.30;;;11.80;99.90;;;;;;5010079;28;20210;-56
2022/05/27 05:18:47;;;;;;;10.77;2.87;;;11.80;99.90;;;;;;5003226;28;20634;-56
2022/05/27 05:21:13;;;;;;;12.40;3.20;;;11.70;99.90;;;;;;5003934;28;20242;-56
2022/05/27 05:23:39;;;;;;;10.23;3.27;;;11.90;99.90;;;;;;4993375;28;20535;-56
2022/05/27 05:26:04;;;;;;;11.53;3.20;;;12.00;99.90;;;;;;5001098;28;20204;-55
2022/05/27 05:28:30;;;;;;;10.40;3.43;;;12.10;99.90;;;;;;4998020;28;20700;-54
2022/05/27 05:30:56;;;;;;;12.33;3.30;;;12.10;99.90;;;;;;5004390;28;20197;-55
2022/05/27 05:33:21;;;;;;;10.87;2.77;;;12.10;99.90;;;;;;4993041;28;20264;-55
2022/05/27 05:35:47;;;;;;;16.37;3.50;;;12.10;99.90;;;;;;4998518;28;20210;-55
2022/05/27 05:38:13;;;;;;;22.90;2.90;;;12.10;99.90;;;;;;5003468;28;20206;-55
2022/05/27 05:40:40;;;;;;;20.60;3.20;;;12.10;99.90;;;;;;4994142;28;20179;-55
2022/05/27 05:43:06;;;;;;;17.73;3.20;;;12.10;99.90;;;;;;5004764;28;20452;-55
2022/05/27 05:45:32;;;;;;;15.90;2.80;;;12.10;99.90;;;;;;5002984;28;20269;-55
2022/05/27 05:47:57;;;;;;;20.30;3.07;;;12.20;99.90;;;;;;5010627;28;20202;-55
2022/05/27 05:50:23;;;;;;;19.50;3.47;;;12.20;99.90;;;;;;5009636;28;20214;-55
2022/05/27 05:52:49;;;;;;;15.07;3.17;;;12.30;99.90;;;;;;5006909;28;20210;-56
2022/05/27 05:55:17;;;;;;;23.60;3.50;;;12.20;99.90;;;;;;5001421;28;20234;-56
2022/05/27 05:57:46;;;;;;;13.53;3.03;;;12.30;99.90;;;;;;5000244;28;20270;-57
2022/05/27 06:00:17;;;;;;;23.03;3.13;;;12.30;99.90;;;;;;5003904;28;20222;-55
2022/05/27 06:02:42;;;;;;;24.03;3.90;;;12.30;99.90;;;;;;4992138;28;20590;-54
2022/05/27 06:05:09;;;;;;;18.20;3.30;;;12.30;99.90;;;;;;4992845;28;20186;-55
2022/05/27 06:07:35;;;;;;;16.93;3.00;;;12.40;99.90;;;;;;4992282;28;20607;-55
2022/05/27 06:10:01;;;;;;;16.77;2.83;;;12.40;99.90;;;;;;5001010;28;20261;-55
2022/05/27 06:12:28;;;;;;;24.47;3.57;;;12.50;99.90;;;;;;4993616;28;20183;-56
2022/05/27 06:14:54;;;;;;;28.33;3.97;;;12.50;99.90;;;;;;4994059;28;20237;-56
2022/05/27 06:17:21;;;;;;;17.93;3.30;;;12.60;99.90;;;;;;5006945;28;20197;-55
2022/05/27 06:19:46;;;;;;;22.77;3.08;;;12.60;99.90;;;;;;5008826;28;20193;-54
2022/05/27 06:22:13;;;;;;;16.07;2.90;;;12.70;99.90;;;;;;4999436;28;20215;-54
2022/05/27 06:24:38;;;;;;;22.33;3.63;;;12.70;99.90;;;;;;4992227;28;20183;-55
2022/05/27 06:27:07;;;;;;;18.17;3.23;;;12.80;99.90;;;;;;4995785;28;20236;-54
2022/05/27 06:35:02;;;;;;;15.55;3.10;;;12.90;99.90;;;;;;5000964;28;20201;-55
2022/05/27 06:37:28;;;;;;;22.93;3.13;;;13.00;99.90;;;;;;5011549;28;20170;-55
2022/05/27 06:39:54;;;;;;;20.43;3.23;;;13.10;99.90;;;;;;5010844;28;20182;-56
2022/05/27 06:42:22;;;;;;;16.77;3.03;;;13.20;99.90;;;;;;4993870;28;20646;-56
2022/05/27 06:44:48;;;;;;;20.70;2.87;;;13.30;99.90;;;;;;4991723;28;20198;-57
2022/05/27 06:47:14;;;;;;;13.32;2.90;;;13.50;99.90;;;;;;5007189;28;20174;-56
2022/05/27 06:49:40;;;;;;;22.85;3.58;;;13.60;99.90;;;;;;5002763;28;20182;-55
2022/05/27 06:52:07;;;;;;;13.68;2.75;;;13.80;99.90;;;;;;4995549;28;20202;-59
2022/05/27 06:54:36;;;;;;;21.23;3.72;;;14.00;99.90;;;;;;5009881;28;20189;-59
2022/05/27 06:57:04;;;;;;;14.65;2.97;;;14.00;99.90;;;;;;4990613;28;20211;-58
2022/05/27 06:59:30;;;;;;;19.52;3.17;;;14.00;99.90;;;;;;4998604;28;20167;-59
2022/05/27 07:01:56;;;;;;;14.50;2.33;;;14.00;99.90;;;;;;5005216;28;20171;-57
2022/05/27 07:04:22;;;;;;;18.08;2.83;;;14.10;99.90;;;;;;5004689;28;20661;-58
2022/05/27 07:06:48;;;;;;;19.17;3.45;;;14.10;99.90;;;;;;5002403;28;20527;-57
2022/05/27 07:09:17;;;;;;;22.48;3.78;;;14.00;99.90;;;;;;5010990;28;20193;-58
2022/05/27 07:11:45;;;;;;;15.32;3.05;;;14.10;99.90;;;;;;5008543;28;20182;-57
2022/05/27 07:14:13;;;;;;;13.82;2.92;;;14.20;99.90;;;;;;4973745;28;20545;-57
2022/05/27 07:16:40;;;;;;;23.35;3.53;;;14.50;99.90;;;;;;4991106;28;20693;-57
2022/05/27 07:19:06;;;;;;;19.20;3.83;;;14.50;99.90;;;;;;4991409;28;20172;-58
2022/05/27 07:21:39;;;;;;;21.35;3.22;;;14.60;99.90;;;;;;4990143;28;20275;-58
2022/05/27 07:24:09;;;;;;;19.90;3.17;;;14.70;99.90;;;;;;4991199;28;20214;-57
2022/05/27 07:26:36;;;;;;;16.42;3.25;;;14.70;99.90;;;;;;4994841;28;20206;-58
2022/05/27 07:29:02;;;;;;;16.77;3.35;;;14.80;99.90;;;;;;4999086;28;20273;-58
2022/05/27 07:31:29;;;;;;;17.15;3.10;;;14.50;99.90;;;;;;5010656;28;20197;-58
2022/05/27 07:33:55;;;;;;;17.33;3.22;;;14.50;99.90;;;;;;5010739;28;20261;-62
2022/05/27 07:36:21;;;;;;;21.85;3.55;;;14.80;99.90;;;;;;5009261;28;20218;-63
2022/05/27 08:17:05;;;;;;;14.93;2.80;;;14.10;99.90;;;;;;5107923;27;20556;-63
2022/05/27 08:19:30;;;;;;;20.50;4.00;;;15.10;99.90;;;;;;5108147;28;20167;-63
2022/05/27 08:21:56;;;;;;;24.15;3.30;;;15.50;99.90;;;;;;5108100;28;20634;-63
2022/05/27 08:24:22;;;;;;;17.70;3.35;;;;;;;;;;5108215;28;20531;-63
2022/05/27 08:26:48;;;;;;;20.33;3.55;;;15.30;99.90;;;;;;5107945;28;20255;-64
2022/05/27 08:29:14;;;;;;;14.73;3.55;;;16.00;99.90;;;;;;5107714;28;20201;-58
2022/05/27 08:31:40;;;;;;;25.25;4.32;;;15.70;99.90;;;;;;5107115;28;20194;-63
2022/05/27 08:39:38;;;;;;;17.70;3.28;;;16.30;99.90;;;;;;5087002;28;20179;-62
2022/05/27 08:42:45;;;;;;;18.10;3.13;;;16.70;99.90;;;;;;5106553;28;20176;-63
2022/05/27 08:45:20;;;;;;;18.35;3.38;;;16.70;99.90;;;;;;5101550;28;20210;-63
2022/05/27 08:47:56;;;;;;;16.88;3.30;;;17.30;99.90;;;;;;5107617;28;20646;-63
2022/05/27 08:50:29;;;;;;;24.27;3.75;;;17.70;99.90;;;;;;5107866;28;20171;-63
2022/05/27 08:53:26;;;;;;;16.20;3.08;;;17.90;99.90;;;;;;5098694;28;20176;-63
2022/05/27 08:59:27;;;;;;;17.30;3.15;;;17.40;99.90;;;;;;5107947;28;20662;-68
2022/05/27 09:02:06;;;;;;;17.85;3.70;;;17.30;99.90;;;;;;5107381;28;20171;-65
2022/05/27 09:04:57;;;;;;;16.10;3.05;;;17.80;99.90;;;;;;5107397;28;20171;-66
2022/05/27 09:07:39;;;;;;;17.67;3.28;;;17.80;99.90;;;;;;5107359;28;20571;-65
2022/05/27 09:10:13;;;;;;;15.82;3.17;;;17.80;99.90;;;;;;5107191;28;20543;-63
2022/05/27 09:12:59;;;;;;;18.75;3.42;;;17.80;99.90;;;;;;5093505;28;20253;-65
2022/05/27 09:15:52;;;;;;;19.58;3.15;;;18.10;99.90;;;;;;5086644;28;20209;-65
2022/05/27 09:18:40;;;;;;;14.43;3.22;;;18.60;99.90;;;;;;5073151;28;20245;-66
2022/05/27 09:21:26;;;;;;;17.50;3.20;;;18.70;99.90;;;;;;5073132;28;20183;-65
2022/05/27 09:23:58;;;;;;;18.38;3.05;;;18.10;99.90;;;;;;5065565;28;20191;-66
2022/05/27 09:26:45;;;;;;;13.10;3.38;;;18.20;99.90;;;;;;5073248;28;20203;-66
2022/05/27 09:29:26;;;;;;;25.20;4.20;;;18.50;99.90;;;;;;5073240;28;20649;-66
2022/05/27 09:32:04;;;;;;;15.90;2.90;;;18.80;99.90;;;;;;5080090;28;20173;-66
2022/05/27 09:34:32;;;;;;;16.10;3.30;;;18.70;99.90;;;;;;5085121;28;20171;-66
2022/05/27 09:37:04;;;;;;;11.80;3.15;;;19.00;99.90;;;;;;5092434;28;20186;-66
2022/05/27 09:39:31;;;;;;;14.85;3.72;;;19.00;99.90;;;;;;5092579;28;20186;-66
2022/05/27 09:42:03;;;;;;;15.15;3.22;;;19.30;99.90;;;;;;5087450;28;20662;-66
2022/05/27 09:44:43;;;;;;;16.08;3.65;;;19.30;99.90;;;;;;5073042;28;20169;-66
2022/05/27 09:47:09;;;;;;;22.38;4.22;;;18.70;99.90;;;;;;5092377;28;20183;-65
2022/05/27 09:49:35;;;;;;;16.85;3.42;;;19.20;99.90;;;;;;5090013;28;20320;-58
2022/05/27 09:52:01;;;;;;;15.63;2.75;;;19.60;99.90;;;;;;5089502;28;20187;-58
2022/05/27 09:54:37;;;;;;;10.93;3.08;;;20.20;99.90;;;;;;5091117;28;20172;-59
2022/05/27 09:57:25;;;;;;;11.82;2.83;;;19.70;99.90;;;;;;5088918;28;20192;-58
2022/05/27 09:59:59;;;;;;;11.43;3.20;;;19.50;99.90;;;;;;5072620;28;20203;-58
2022/05/27 10:02:37;;;;;;;19.20;3.42;;;19.40;99.90;;;;;;5072096;28;20551;-58
2022/05/27 10:05:05;;;;;;;14.70;3.30;;;19.50;99.90;;;;;;5072585;28;20766;-58
2022/05/27 10:07:33;;;;;;;22.65;3.55;;;19.60;99.90;;;;;;5072214;28;20177;-58
2022/05/27 10:10:15;;;;;;;16.40;3.83;;;19.80;99.90;;;;;;5072589;28;20227;-58
2022/05/27 10:12:40;;;;;;;14.30;3.30;;;19.70;99.90;;;;;;5072453;28;20208;-58
2022/05/27 10:15:06;;;;;;;18.40;3.65;;;19.70;99.90;;;;;;5072019;28;20669;-58
2022/05/27 10:17:36;;;;;;;17.05;3.15;;;19.60;99.90;;;;;;5072238;28;20184;-58
2022/05/27 10:20:30;;;;;;;17.77;3.78;;;19.80;99.90;;;;;;5072286;28;20203;-58
2022/05/27 10:23:04;;;;;;;12.88;3.40;;;20.00;99.90;;;;;;5072414;28;20225;-58
2022/05/27 10:25:43;;;;;;;16.85;3.63;;;20.10;99.90;;;;;;5072165;28;20234;-59
2022/05/27 10:28:10;;;;;;;13.30;3.20;;;20.20;99.90;;;;;;5071274;28;20277;-58
2022/05/27 10:31:02;;;;;;;19.80;3.22;;;20.00;99.90;;;;;;5072323;28;20283;-58
2022/05/27 10:33:40;;;;;;;19.55;3.78;;;20.10;99.90;;;;;;5070769;28;20179;-58
2022/05/27 10:36:42;;;;;;;13.68;3.40;;;20.60;99.90;;;;;;5071907;28;20207;-59
2022/05/27 10:39:15;;;;;;;16.63;3.42;;;20.40;99.90;;;;;;5072043;28;20176;-58
2022/05/27 10:41:55;;;;;;;12.90;2.85;;;20.70;99.90;;;;;;5071846;28;20660;-58
2022/05/27 10:44:21;;;;;;;11.63;2.63;;;20.60;99.90;;;;;;5071599;28;20226;-58
2022/05/27 10:46:55;;;;;;;14.75;2.83;;;21.00;99.90;;;;;;5071716;28;20586;-58
2022/05/27 10:49:43;;;;;;;13.23;2.90;;;20.40;99.90;;;;;;5071737;28;20168;-58
2022/05/27 10:52:34;;;;;;;12.20;3.40;;;20.90;99.90;;;;;;5071675;28;20176;-59
2022/05/27 10:55:34;;;;;;;13.50;3.30;;;20.60;99.90;;;;;;5051985;28;20195;-58
2022/05/27 11:04:00;;;;;;;12.93;2.65;;;;;;;;;;5071396;28;20291;-58
2022/05/27 11:06:38;;;;;;;15.13;3.40;;;20.80;99.90;;;;;;5070677;28;20302;-58
2022/05/27 11:09:25;;;;;;;13.73;3.45;;;21.60;99.90;;;;;;5070832;28;20302;-58
2022/05/27 11:12:10;;;;;;;12.32;3.47;;;22.10;99.90;;;;;;5069182;28;20540;-58
2022/05/27 11:15:11;;;;;;;9.80;3.17;;;21.50;99.90;;;;;;5070740;28;20192;-59
2022/05/27 11:18:07;;;;;;;9.40;3.42;;;21.90;99.90;;;;;;5070173;28;20226;-59
2022/05/27 11:20:47;;;;;;;14.30;2.85;;;21.60;99.90;;;;;;5070350;28;20717;-59
2022/05/27 11:23:31;;;;;;;9.95;3.15;;;21.70;99.90;;;;;;5071401;28;20261;-59
2022/05/27 11:26:32;;;;;;;16.55;3.33;;;21.60;99.90;;;;;;5070928;28;20676;-59
2022/05/27 11:29:27;;;;;;;14.57;3.20;;;21.80;99.90;;;;;;5063902;28;20237;-59
2022/05/27 11:32:01;;;;;;;12.27;3.17;;;22.60;99.90;;;;;;5033865;28;20182;-58
2022/05/27 11:35:04;;;;;;;16.92;3.33;;;23.10;99.90;;;;;;5071036;28;20172;-59
2022/05/27 11:37:41;;;;;;;12.43;3.33;;;22.80;99.90;;;;;;5070184;28;20176;-59
2022/05/27 11:40:14;;;;;;;13.88;3.22;;;22.80;99.90;;;;;;5069700;28;20180;-58
2022/05/27 11:42:45;;;;;;;10.60;3.13;;;24.10;99.90;;;;;;5069973;28;20256;-57
2022/05/27 11:45:11;;;;;;;12.68;3.08;;;23.80;99.90;;;;;;5070134;28;20224;-58
2022/05/27 11:47:58;;;;;;;17.95;3.58;;;23.50;99.90;;;;;;5070378;28;20180;-57
2022/05/27 11:50:45;;;;;;;12.82;3.35;;;23.70;99.90;;;;;;5070783;28;20514;-57
2022/05/27 11:53:25;;;;;;;13.32;2.65;;;23.50;99.90;;;;;;5081226;28;20168;-58
2022/05/27 11:56:00;;;;;;;16.23;2.90;;;23.80;99.90;;;;;;5088513;28;20202;-58
2022/05/27 11:58:49;;;;;;;20.13;3.70;;;23.90;99.90;;;;;;5090641;28;20183;-58
2022/05/27 12:01:36;;;;;;;11.60;2.97;;;24.50;99.90;;;;;;5090681;28;20178;-58
2022/05/27 12:04:16;;;;;;;16.75;3.40;;;24.60;99.90;;;;;;5090681;28;20175;-58
2022/05/27 12:06:59;;;;;;;13.85;3.17;;;24.70;99.90;;;;;;5090733;28;20219;-58
2022/05/27 12:09:37;;;;;;;10.32;2.70;;;25.20;99.90;;;;;;5090763;28;20168;-58
2022/05/27 12:12:09;;;;;;;10.80;3.63;;;25.00;99.90;;;;;;5090512;28;20258;-58
2022/05/27 12:14:46;;;;;;;13.60;3.15;;;24.20;99.90;;;;;;5089155;28;20251;-58
2022/05/27 12:17:20;;;;;;;12.00;3.60;;;24.40;99.90;;;;;;5088698;28;20632;-58
2022/05/27 12:19:57;;;;;;;15.93;2.75;;;24.80;99.90;;;;;;5089076;28;20179;-59
2022/05/27 12:22:27;;;;;;;12.48;2.83;;;25.20;99.90;;;;;;5090730;28;20213;-58
2022/05/27 12:25:00;;;;;;;12.55;3.08;;;25.40;99.90;;;;;;5089237;28;20283;-59
2022/05/27 12:27:27;;;;;;;17.42;3.38;;;25.60;99.90;;;;;;5089950;28;20176;-58
2022/05/27 12:29:54;;;;;;;11.82;2.85;;;25.60;99.90;;;;;;5090428;28;20258;-59
2022/05/27 12:32:24;;;;;;;13.15;3.30;;;25.50;99.90;;;;;;5090662;28;20206;-59
2022/05/27 12:34:50;;;;;;;14.65;3.40;;;25.80;99.90;;;;;;5090201;28;20205;-58
2022/05/27 12:37:28;;;;;;;10.75;2.97;;;25.80;99.90;;;;;;5090466;28;20180;-57
2022/05/27 12:40:18;;;;;;;14.63;3.78;;;25.10;99.90;;;;;;5090775;28;20176;-58
2022/05/27 12:42:45;;;;;;;9.82;3.03;;;27.30;99.90;;;;;;5090031;28;20176;-59
2022/05/27 12:45:38;;;;;;;16.23;3.88;;;24.90;99.90;;;;;;5089895;28;20207;-58
2022/05/27 12:48:05;;;;;;;15.20;3.20;;;25.10;99.90;;;;;;5090528;28;20233;-58
2022/05/27 12:50:35;;;;;;;14.13;3.47;;;25.40;99.90;;;;;;5090510;28;20263;-58
2022/05/27 12:53:19;;;;;;;11.77;3.40;;;25.70;99.90;;;;;;5093431;28;20160;-58
2022/05/27 13:01:28;;;;;;;11.40;3.00;;;24.70;99.90;;;;;;5073803;28;20234;-58
2022/05/27 13:03:56;;;;;;;15.52;3.03;;;24.30;99.90;;;;;;5080026;28;20168;-58
2022/05/27 13:06:25;;;;;;;11.73;3.20;;;23.80;99.90;;;;;;5092552;28;20214;-58
2022/05/27 13:08:51;;;;;;;14.80;2.97;;;;;;;;;;5093864;28;20244;-58
2022/05/27 13:11:34;;;;;;;11.93;3.25;;;24.70;99.90;;;;;;5093528;28;20172;-58
2022/05/27 13:14:03;;;;;;;12.10;3.05;;;24.50;99.90;;;;;;5091951;28;20176;-58
2022/05/27 13:16:40;;;;;;;11.25;3.08;;;25.30;99.90;;;;;;5093581;28;20219;-59
2022/05/27 13:19:09;;;;;;;12.60;3.38;;;25.90;99.90;;;;;;5093191;28;20180;-59
2022/05/27 13:21:57;;;;;;;17.00;3.35;;;26.30;99.90;;;;;;5092766;28;20245;-60
2022/05/27 13:24:29;;;;;;;15.23;2.90;;;26.30;99.90;;;;;;5092874;28;20262;-61
2022/05/27 13:26:59;;;;;;;13.25;3.13;;;26.00;99.90;;;;;;5093085;28;20667;-61
2022/05/27 13:29:42;;;;;;;15.52;2.80;;;26.40;99.90;;;;;;5093642;28;20229;-61
2022/05/27 13:32:10;;;;;;;16.02;3.40;;;26.10;99.90;;;;;;5073426;28;20184;-62
2022/05/27 13:34:56;;;;;;;12.20;3.20;;;25.90;99.90;;;;;;5074968;28;20195;-62
2022/05/27 13:37:38;;;;;;;12.05;3.53;;;26.60;99.90;;;;;;5092651;28;20205;-62
2022/05/27 13:40:25;;;;;;;15.52;4.20;;;27.10;99.90;;;;;;5092941;28;20178;-62
2022/05/27 13:42:54;;;;;;;14.90;3.63;;;26.70;99.90;;;;;;5093209;28;20168;-63
2022/05/27 13:45:46;;;;;;;14.65;3.78;;;26.60;99.90;;;;;;5092633;28;20739;-61
2022/05/27 13:48:34;;;;;;;14.60;3.70;;;26.30;99.90;;;;;;5093111;28;20205;-61
2022/05/27 13:51:08;;;;;;;14.38;3.40;;;26.00;99.90;;;;;;5092829;28;20694;-61
2022/05/27 13:53:38;;;;;;;11.60;2.92;;;25.90;99.90;;;;;;5092604;28;20216;-61
2022/05/27 13:56:17;;;;;;;12.02;2.80;;;26.50;99.90;;;;;;5092923;28;20203;-61
2022/05/27 13:59:13;;;;;;;8.73;2.85;;;25.80;99.90;;;;;;5093043;28;20172;-62
2022/05/27 14:01:46;;;;;;;11.73;3.10;;;26.30;99.90;;;;;;5092816;28;20246;-61
2022/05/27 14:04:22;;;;;;;15.27;3.40;;;26.70;99.90;;;;;;5092393;28;20168;-61
2022/05/27 14:06:48;;;;;;;10.88;2.90;;;26.80;99.90;;;;;;5092827;28;20211;-61
2022/05/27 14:09:17;;;;;;;10.00;2.85;;;26.30;99.90;;;;;;5092848;28;20176;-62
2022/05/27 14:11:49;;;;;;;12.90;3.55;;;26.60;99.90;;;;;;5092794;28;20659;-62
2022/05/27 14:14:19;;;;;;;15.63;3.95;;;26.60;99.90;;;;;;5091199;28;20221;-61
2022/05/27 14:16:45;;;;;;;13.13;3.40;;;27.70;99.90;;;;;;5092461;28;20215;-61
2022/05/27 14:19:18;;;;;;;21.13;3.63;;;26.20;99.90;;;;;;5092645;28;20195;-62
2022/05/27 14:24:36;;;;;;;13.55;3.38;;;25.30;99.90;;;;;;5092473;28;20527;-59
2022/05/27 14:27:11;;;;;;;10.23;3.17;;;25.10;99.90;;;;;;5092212;28;20652;-59